Greenville, WI

10:35 AM CST on November 22, 2014 (GMT -0600)
East End, School Road | Change Station
CLOSE
Current Station
Personal Weather Station
Location: Greenville, WI
Elevation: 880 ft
Nearby Weather Stations

Elev 880 ft 44.29 °N, 88.52 °W | Updated 3 seconds ago

Fog
Fog
35.3 °F
Feels Like 30 °F
N
6.0
Wind Variable Wind from SSW
Gusts 6.0 mph

Today
High -- | Low -- °F
--% Chance of Precip.
Yesterday
High -- | Low -- °F
Precip. -- in
6:59 AM 4:21 PM
New Moon, 0% visible
Pressure 29.86 in
Visibility 2.0 miles
Clouds
Windchill 30 °F
Dew Point 33 °F
Humidity 92%
Rainfall 0.00 in
Snow Depth Not available.
UV Not available.
Pollen .10 out of 12
Air Quality Not available.
Flu Activity Not available.
METAR KATW 221545Z 21009KT 2SM BR VV004 01/01 A2986

More Conditions Fewer Conditions

Pressure 29.86 in
Visibility 2.0 miles
Clouds
Windchill 30 °F
Dew Point 33 °F
Humidity 92%
Rainfall 0.00 in
Snow Depth Not available.
UV Not available.
Pollen .10 out of 12
Air Quality Not available.
Flu Activity Not available.
METAR KATW 221545Z 21009KT 2SM BR VV004 01/01 A2986

More Conditions Fewer Conditions

10-Day Weather Forecast

Almanac

Astronomy

Nov. 22, 2014 Rise Set
Actual Time
Civil Twilight
Nautical Twilight
Astronomical Twilight
Moon
Length of Visible Light
Length of Day
Tomorrow will be .
, % of the Moon is Illuminated

Today's Extremes

State Highs State Lows

Community

WunderPhotos

Upload Photos

1,772,847 photos uploaded!

WunderBlogs® & News

Nearby

Air Quality

  Air Quality AQ Index Pollutant
Not available.

Snow Depth

Station Depth Elevation

Earthquake Activity

City Distance Mag. Time & Date
Minimum magnitude displayed is 2.5.

Coastal Water Temperatures

Place Temperature

Nearby Weather Stations